createdAt,value
2017-12-15T00:01:50.938Z,986.62
2017-12-15T00:02:51.017Z,986.60
2017-12-15T00:03:51.004Z,986.56
2017-12-15T00:04:51.058Z,986.59
2017-12-15T00:05:53.488Z,986.54
2017-12-15T00:06:51.099Z,986.58
2017-12-15T00:07:51.123Z,986.56
2017-12-15T00:08:51.204Z,986.58
2017-12-15T00:09:51.310Z,986.59
2017-12-15T00:10:51.213Z,986.55
2017-12-15T00:11:51.247Z,986.55
2017-12-15T00:12:51.576Z,986.60
2017-12-15T00:14:51.335Z,986.62
2017-12-15T00:15:51.420Z,986.58
2017-12-15T00:17:51.427Z,986.61
2017-12-15T00:18:51.475Z,986.61
2017-12-15T00:19:51.789Z,986.64
2017-12-15T00:20:51.524Z,986.63
2017-12-15T00:21:51.702Z,986.62
2017-12-15T00:22:51.585Z,986.66
2017-12-15T00:23:51.612Z,986.65
2017-12-15T00:24:51.645Z,986.66
2017-12-15T00:25:51.689Z,986.63
2017-12-15T00:26:52.055Z,986.64
2017-12-15T00:27:51.735Z,986.62
2017-12-15T00:28:51.765Z,986.67
2017-12-15T00:29:51.848Z,986.65
2017-12-15T00:30:51.827Z,986.64
2017-12-15T00:31:51.859Z,986.61
2017-12-15T00:32:52.089Z,986.64
2017-12-15T00:33:52.258Z,986.59
2017-12-15T00:34:51.952Z,986.64
2017-12-15T00:35:51.990Z,986.66
2017-12-15T00:37:52.044Z,986.64
2017-12-15T00:38:52.170Z,986.63
2017-12-15T00:39:52.108Z,986.62
2017-12-15T00:40:52.434Z,986.57
2017-12-15T00:41:52.169Z,986.61
2017-12-15T00:42:52.278Z,986.62
2017-12-15T00:43:52.240Z,986.60
2017-12-15T00:44:52.266Z,986.63
2017-12-15T00:45:52.290Z,986.65
2017-12-15T00:46:52.318Z,986.59
2017-12-15T00:47:52.665Z,986.63
2017-12-15T00:48:52.580Z,986.64
2017-12-15T00:49:52.412Z,986.61
2017-12-15T00:50:52.459Z,986.64
2017-12-15T00:51:52.471Z,986.62
2017-12-15T00:52:52.509Z,986.60
2017-12-15T00:53:52.842Z,986.63
2017-12-15T00:54:52.616Z,986.63
2017-12-15T00:55:52.594Z,986.68
2017-12-15T00:56:52.627Z,986.64
2017-12-15T00:57:52.711Z,986.63
2017-12-15T00:58:52.701Z,986.66
2017-12-15T00:59:53.017Z,986.68
2017-12-15T01:00:52.797Z,986.71
2017-12-15T01:01:52.870Z,986.72
2017-12-15T01:02:52.813Z,986.73
2017-12-15T01:03:52.843Z,986.74
2017-12-15T01:04:52.881Z,986.75
2017-12-15T01:05:53.238Z,986.76
2017-12-15T01:06:52.931Z,986.76
2017-12-15T01:07:53.121Z,986.80
2017-12-15T01:08:52.999Z,986.85
2017-12-15T01:09:53.034Z,986.85
2017-12-15T01:10:53.172Z,986.88
2017-12-15T01:11:53.084Z,986.89
2017-12-15T01:12:53.186Z,986.90
2017-12-15T01:13:53.143Z,986.88
2017-12-15T01:14:53.173Z,986.91
2017-12-15T01:15:53.210Z,986.89
2017-12-15T01:16:53.247Z,986.92
2017-12-15T01:17:53.566Z,986.94
2017-12-15T01:19:53.327Z,986.99
2017-12-15T01:20:53.360Z,987.01
2017-12-15T01:21:53.570Z,986.99
2017-12-15T01:22:53.424Z,987.06
2017-12-15T01:23:53.817Z,987.05
2017-12-15T01:24:53.536Z,987.06
2017-12-15T01:25:53.517Z,987.07
2017-12-15T01:26:53.543Z,987.12
2017-12-15T01:27:53.575Z,987.09
2017-12-15T01:28:53.653Z,987.11
2017-12-15T01:29:53.989Z,987.14
2017-12-15T01:30:53.711Z,987.14
2017-12-15T01:31:53.694Z,987.16
2017-12-15T01:32:53.726Z,987.17
2017-12-15T01:33:53.763Z,987.19
2017-12-15T01:34:53.903Z,987.25
2017-12-15T01:35:54.121Z,987.25
2017-12-15T01:37:53.874Z,987.32
2017-12-15T01:38:53.912Z,987.29
2017-12-15T01:39:53.936Z,987.29
2017-12-15T01:40:54.020Z,987.37
2017-12-15T01:41:54.301Z,987.40
2017-12-15T01:42:54.088Z,987.43
2017-12-15T01:43:54.059Z,987.40
2017-12-15T01:44:54.090Z,987.45
2017-12-15T01:45:54.266Z,987.43
2017-12-15T01:46:54.181Z,987.45
2017-12-15T01:47:54.488Z,987.44
2017-12-15T01:48:54.212Z,987.45
2017-12-15T01:49:54.242Z,987.47
2017-12-15T01:50:54.276Z,987.50
2017-12-15T01:51:54.453Z,987.55
2017-12-15T01:52:54.336Z,987.55
2017-12-15T01:53:54.665Z,987.59
2017-12-15T01:54:54.394Z,987.64
2017-12-15T01:55:54.423Z,987.65
2017-12-15T01:56:54.464Z,987.67
2017-12-15T01:57:54.837Z,987.70
2017-12-15T01:58:54.518Z,987.72
2017-12-15T01:59:54.846Z,987.71
2017-12-15T02:00:54.577Z,987.72
2017-12-15T02:01:54.614Z,987.74
2017-12-15T02:02:54.639Z,987.76
2017-12-15T02:03:54.767Z,987.79
2017-12-15T02:04:54.708Z,987.76
2017-12-15T02:05:54.731Z,987.79
2017-12-15T02:07:55.094Z,987.80
2017-12-15T02:08:54.908Z,987.81
2017-12-15T02:09:54.905Z,987.86
2017-12-15T02:10:54.896Z,987.86
2017-12-15T02:11:54.913Z,987.85
2017-12-15T02:12:54.961Z,987.91
2017-12-15T02:13:55.027Z,987.89
2017-12-15T02:14:55.312Z,987.93
2017-12-15T02:15:55.035Z,987.88
2017-12-15T02:16:55.079Z,987.93
2017-12-15T02:17:55.101Z,987.98
2017-12-15T02:18:55.130Z,988.01
2017-12-15T02:19:55.215Z,988.03
2017-12-15T02:20:55.189Z,988.03
2017-12-15T02:21:55.519Z,988.00
2017-12-15T02:22:55.456Z,988.02
2017-12-15T02:23:55.329Z,988.01
2017-12-15T02:24:55.314Z,988.07
2017-12-15T02:25:55.339Z,988.07
2017-12-15T02:26:55.372Z,988.08
2017-12-15T02:27:55.403Z,988.10
2017-12-15T02:28:55.829Z,988.16
2017-12-15T02:29:55.468Z,988.16
2017-12-15T02:30:55.491Z,988.18
2017-12-15T02:31:55.522Z,988.14
2017-12-15T02:32:55.551Z,988.18
2017-12-15T02:33:55.736Z,988.22
2017-12-15T02:34:55.619Z,988.27
2017-12-15T02:35:55.993Z,988.27
2017-12-15T02:36:55.676Z,988.31
2017-12-15T02:37:55.706Z,988.31
2017-12-15T02:38:55.887Z,988.34
2017-12-15T02:39:55.773Z,988.33
2017-12-15T02:40:55.798Z,988.34
2017-12-15T02:41:56.138Z,988.35
2017-12-15T02:42:55.860Z,988.37
2017-12-15T02:43:55.885Z,988.35
2017-12-15T02:45:56.252Z,988.41
2017-12-15T02:46:55.976Z,988.40
2017-12-15T02:47:56.012Z,988.43
2017-12-15T02:48:56.359Z,988.45
2017-12-15T02:49:56.120Z,988.46
2017-12-15T02:50:56.105Z,988.48
2017-12-15T02:51:56.180Z,988.50
2017-12-15T02:53:56.191Z,988.53
2017-12-15T02:54:56.277Z,988.57
2017-12-15T02:55:56.558Z,988.54
2017-12-15T02:56:56.291Z,988.55
2017-12-15T02:57:56.314Z,988.59
2017-12-15T02:58:56.343Z,988.59
2017-12-15T02:59:56.372Z,988.60
2017-12-15T03:00:56.556Z,988.61
2017-12-15T03:01:56.449Z,988.67
2017-12-15T03:02:56.771Z,988.62
2017-12-15T03:03:56.507Z,988.64
2017-12-15T03:04:56.547Z,988.62
2017-12-15T03:05:56.585Z,988.59
2017-12-15T03:06:56.744Z,988.63
2017-12-15T03:07:56.620Z,988.60
2017-12-15T03:08:56.953Z,988.60
2017-12-15T03:09:56.834Z,988.60
2017-12-15T03:10:56.724Z,988.59
2017-12-15T03:11:56.744Z,988.60
2017-12-15T03:12:56.786Z,988.58
2017-12-15T03:13:56.805Z,988.59
2017-12-15T03:15:57.215Z,988.61
2017-12-15T03:16:56.902Z,988.62
2017-12-15T03:17:56.923Z,988.61
2017-12-15T03:18:56.965Z,988.59
2017-12-15T03:19:57.070Z,988.58
2017-12-15T03:20:57.113Z,988.56
2017-12-15T03:21:57.343Z,988.58
2017-12-15T03:22:57.076Z,988.56
2017-12-15T03:23:57.113Z,988.57
2017-12-15T03:24:57.139Z,988.57
2017-12-15T03:25:57.323Z,988.55
2017-12-15T03:26:57.245Z,988.62
2017-12-15T03:27:57.534Z,988.61
2017-12-15T03:28:57.256Z,988.62
2017-12-15T03:29:57.314Z,988.67
2017-12-15T03:30:57.854Z,988.65
2017-12-15T03:31:57.412Z,988.65
2017-12-15T03:32:57.380Z,988.62
2017-12-15T03:33:57.712Z,988.60
2017-12-15T03:34:57.449Z,988.63
2017-12-15T03:35:57.476Z,988.62
2017-12-15T03:36:57.616Z,988.55
2017-12-15T03:37:57.532Z,988.58
2017-12-15T03:38:57.583Z,988.61
2017-12-15T03:39:57.892Z,988.62
2017-12-15T03:40:57.627Z,988.65
2017-12-15T03:41:57.653Z,988.62
2017-12-15T03:42:58.084Z,988.58
2017-12-15T03:43:57.722Z,988.66
2017-12-15T03:44:57.755Z,988.66
2017-12-15T03:45:57.779Z,988.65
2017-12-15T03:46:58.111Z,988.65
2017-12-15T03:47:57.885Z,988.63
2017-12-15T03:48:57.926Z,988.63
2017-12-15T03:49:57.908Z,988.66
2017-12-15T03:50:57.925Z,988.66
2017-12-15T03:51:57.967Z,988.63
2017-12-15T03:52:58.343Z,988.62
2017-12-15T03:53:58.032Z,988.60
2017-12-15T03:54:58.053Z,988.57
2017-12-15T03:55:58.181Z,988.60
2017-12-15T03:56:58.109Z,988.56
2017-12-15T03:57:58.394Z,988.59
2017-12-15T03:58:58.475Z,988.54
2017-12-15T03:59:58.208Z,988.61
2017-12-15T04:00:58.238Z,988.60
2017-12-15T04:01:58.289Z,988.61
2017-12-15T04:02:58.298Z,988.59
2017-12-15T04:03:58.476Z,988.62
2017-12-15T04:04:58.656Z,988.64
2017-12-15T04:05:58.387Z,988.63
2017-12-15T04:06:58.422Z,988.62
2017-12-15T04:07:58.446Z,988.64
2017-12-15T04:08:58.628Z,988.71
2017-12-15T04:09:58.506Z,988.65
2017-12-15T04:10:58.843Z,988.67
2017-12-15T04:11:58.568Z,988.70
2017-12-15T04:12:58.596Z,988.75
2017-12-15T04:13:58.633Z,988.70
2017-12-15T04:14:58.708Z,988.73
2017-12-15T04:15:58.689Z,988.75
2017-12-15T04:16:59.019Z,988.78
2017-12-15T04:17:58.761Z,988.76
2017-12-15T04:18:58.783Z,988.78
2017-12-15T04:19:58.909Z,988.77
2017-12-15T04:21:58.875Z,988.80
2017-12-15T04:22:58.905Z,988.81
2017-12-15T04:23:59.244Z,988.77
2017-12-15T04:24:58.964Z,988.78
2017-12-15T04:25:59.064Z,988.77
2017-12-15T04:26:59.026Z,988.79
2017-12-15T04:27:59.072Z,988.82
2017-12-15T04:30:59.553Z,988.79
2017-12-15T04:31:59.177Z,988.76
2017-12-15T04:32:59.206Z,988.80
2017-12-15T04:33:59.255Z,988.85
2017-12-15T04:34:59.268Z,988.80
2017-12-15T04:35:59.298Z,988.86
2017-12-15T04:36:59.482Z,988.87
2017-12-15T04:37:59.660Z,988.87
2017-12-15T04:38:59.389Z,988.89
2017-12-15T04:39:59.422Z,988.92
2017-12-15T04:40:59.454Z,988.91
2017-12-15T04:41:59.484Z,988.92
2017-12-15T04:42:59.661Z,988.94
2017-12-15T04:43:59.845Z,988.94
2017-12-15T04:44:59.572Z,988.94
2017-12-15T04:45:59.604Z,988.97
2017-12-15T04:47:59.817Z,988.97
2017-12-15T04:48:59.745Z,988.98
2017-12-15T04:49:59.730Z,988.97
2017-12-15T04:51:00.058Z,988.99
2017-12-15T04:51:59.789Z,988.98
2017-12-15T04:52:59.971Z,988.98
2017-12-15T04:53:59.864Z,988.99
2017-12-15T04:55:00.085Z,988.99
2017-12-15T04:55:59.910Z,988.98
2017-12-15T04:56:59.988Z,988.99
2017-12-15T04:58:00.319Z,989.00
2017-12-15T04:59:00.051Z,989.00
2017-12-15T05:00:00.030Z,989.02
2017-12-15T05:01:00.263Z,989.02
2017-12-15T05:02:00.092Z,989.02
2017-12-15T05:03:00.125Z,989.02
2017-12-15T05:04:00.722Z,989.02
2017-12-15T05:05:00.199Z,989.01
2017-12-15T05:06:00.274Z,989.02
2017-12-15T05:07:00.244Z,989.01
2017-12-15T05:08:00.275Z,989.04
2017-12-15T05:09:00.404Z,989.03
2017-12-15T05:10:00.654Z,989.01
2017-12-15T05:11:00.377Z,989.02
2017-12-15T05:12:00.395Z,989.04
2017-12-15T05:13:00.427Z,988.99
2017-12-15T05:14:00.457Z,989.03
2017-12-15T05:15:00.638Z,989.01
2017-12-15T05:16:00.567Z,989.01
2017-12-15T05:17:00.855Z,989.00
2017-12-15T05:18:00.585Z,989.07
2017-12-15T05:19:00.624Z,989.08
2017-12-15T05:20:00.715Z,989.10
2017-12-15T05:21:00.932Z,989.08
2017-12-15T05:22:00.733Z,989.08
2017-12-15T05:23:01.044Z,989.12
2017-12-15T05:24:00.764Z,989.10
2017-12-15T05:25:00.796Z,989.06
2017-12-15T05:26:00.838Z,989.12
2017-12-15T05:27:01.003Z,989.09
2017-12-15T05:28:00.909Z,989.10
2017-12-15T05:29:01.219Z,989.10
2017-12-15T05:30:01.012Z,989.11
2017-12-15T05:31:00.978Z,989.08
2017-12-15T05:32:01.017Z,989.13
2017-12-15T05:33:01.040Z,989.09
2017-12-15T05:34:01.119Z,989.10
2017-12-15T05:35:01.310Z,989.04
2017-12-15T05:36:01.432Z,989.02
2017-12-15T05:37:01.196Z,989.05
2017-12-15T05:38:01.201Z,989.02
2017-12-15T05:39:01.231Z,989.01
2017-12-15T05:40:01.287Z,989.02
2017-12-15T05:41:01.436Z,989.07
2017-12-15T05:42:01.320Z,989.01
2017-12-15T05:43:01.348Z,989.04
2017-12-15T05:45:01.477Z,989.06
2017-12-15T05:46:01.476Z,989.06
2017-12-15T05:47:01.567Z,989.12
2017-12-15T05:48:01.798Z,989.19
2017-12-15T05:49:01.578Z,989.16
2017-12-15T05:50:01.617Z,989.16
2017-12-15T05:51:01.594Z,989.20
2017-12-15T05:52:01.622Z,989.25
2017-12-15T05:53:01.969Z,989.25
2017-12-15T05:54:02.035Z,989.27
2017-12-15T05:55:01.765Z,989.26
2017-12-15T05:56:01.748Z,989.27
2017-12-15T05:57:01.781Z,989.29
2017-12-15T05:58:01.814Z,989.30
2017-12-15T05:59:01.951Z,989.32
2017-12-15T06:00:02.163Z,989.32
2017-12-15T06:01:01.902Z,989.32
2017-12-15T06:02:01.973Z,989.34
2017-12-15T06:03:01.980Z,989.36
2017-12-15T06:04:01.997Z,989.40
2017-12-15T06:05:02.126Z,989.38
2017-12-15T06:06:02.433Z,989.40
2017-12-15T06:07:02.089Z,989.39
2017-12-15T06:08:02.152Z,989.36
2017-12-15T06:09:02.144Z,989.37
2017-12-15T06:10:02.270Z,989.38
2017-12-15T06:11:02.236Z,989.37
2017-12-15T06:12:02.266Z,989.41
2017-12-15T06:13:02.262Z,989.45
2017-12-15T06:14:02.344Z,989.40
2017-12-15T06:15:02.373Z,989.42
2017-12-15T06:16:02.474Z,989.43
2017-12-15T06:17:02.396Z,989.44
2017-12-15T06:18:02.422Z,989.46
2017-12-15T06:19:02.750Z,989.42
2017-12-15T06:20:02.482Z,989.45
2017-12-15T06:21:02.514Z,989.46
2017-12-15T06:22:02.842Z,989.45
2017-12-15T06:23:02.571Z,989.43
2017-12-15T06:24:02.620Z,989.44
2017-12-15T06:25:02.681Z,989.45
2017-12-15T06:26:02.668Z,989.46
2017-12-15T06:27:02.688Z,989.47
2017-12-15T06:28:02.822Z,989.42
2017-12-15T06:29:02.772Z,989.48
2017-12-15T06:30:02.798Z,989.45
2017-12-15T06:31:03.400Z,989.44
2017-12-15T06:32:02.852Z,989.47
2017-12-15T06:33:02.944Z,989.44
2017-12-15T06:34:03.173Z,989.49
2017-12-15T06:35:03.041Z,989.48
2017-12-15T06:36:02.968Z,989.51
2017-12-15T06:38:03.102Z,989.53
2017-12-15T06:39:03.126Z,989.54
2017-12-15T06:40:03.200Z,989.56
2017-12-15T06:41:03.117Z,989.60
2017-12-15T06:42:03.209Z,989.63
2017-12-15T06:43:03.515Z,989.59
2017-12-15T06:44:03.215Z,989.60
2017-12-15T06:45:03.322Z,989.63
2017-12-15T06:46:03.637Z,989.61
2017-12-15T06:47:03.320Z,989.60
2017-12-15T06:48:03.340Z,989.61
2017-12-15T06:49:03.363Z,989.61
2017-12-15T06:50:03.779Z,989.65
2017-12-15T06:51:03.428Z,989.65
2017-12-15T06:52:03.521Z,989.63
2017-12-15T06:53:03.499Z,989.66
2017-12-15T06:54:03.668Z,989.67
2017-12-15T06:55:03.595Z,989.65
2017-12-15T06:56:03.678Z,989.64
2017-12-15T06:57:04.028Z,989.67
2017-12-15T06:58:03.708Z,989.66
2017-12-15T06:59:03.729Z,989.65
2017-12-15T07:00:03.819Z,989.65
2017-12-15T07:01:03.736Z,989.61
2017-12-15T07:02:03.919Z,989.63
2017-12-15T07:03:03.859Z,989.58
2017-12-15T07:04:04.126Z,989.59
2017-12-15T07:05:03.864Z,989.60
2017-12-15T07:06:03.886Z,989.60
2017-12-15T07:07:03.938Z,989.59
2017-12-15T07:08:04.049Z,989.58
2017-12-15T07:09:04.028Z,989.60
2017-12-15T07:10:04.306Z,989.62
2017-12-15T07:11:04.084Z,989.60
2017-12-15T07:12:04.220Z,989.62
2017-12-15T07:13:04.109Z,989.62
2017-12-15T07:14:04.132Z,989.63
2017-12-15T07:15:04.158Z,989.67
2017-12-15T07:16:04.495Z,989.67
2017-12-15T07:17:04.228Z,989.69
2017-12-15T07:18:04.354Z,989.72
2017-12-15T07:19:04.479Z,989.73
2017-12-15T07:20:04.322Z,989.75
2017-12-15T07:21:04.348Z,989.72
2017-12-15T07:22:04.380Z,989.70
2017-12-15T07:23:04.704Z,989.67
2017-12-15T07:24:04.693Z,989.67
2017-12-15T07:25:04.500Z,989.74
2017-12-15T07:26:04.527Z,989.71
2017-12-15T07:27:04.560Z,989.73
2017-12-15T07:28:04.582Z,989.77
2017-12-15T07:29:04.897Z,989.75
2017-12-15T07:30:04.693Z,989.81
2017-12-15T07:31:04.697Z,989.79
2017-12-15T07:32:04.726Z,989.81
2017-12-15T07:33:04.849Z,989.83
2017-12-15T07:34:05.002Z,989.80
2017-12-15T07:35:05.075Z,989.85
2017-12-15T07:36:04.803Z,989.78
2017-12-15T07:38:04.866Z,989.78
2017-12-15T07:39:04.974Z,989.82
2017-12-15T07:40:04.930Z,989.83
2017-12-15T07:41:05.023Z,989.82
2017-12-15T07:42:05.362Z,989.84
2017-12-15T07:44:05.054Z,989.84
2017-12-15T07:45:05.128Z,989.85
2017-12-15T07:46:05.187Z,989.84
2017-12-15T07:47:05.144Z,989.82
2017-12-15T07:48:05.236Z,989.86
2017-12-15T07:49:05.525Z,989.86
2017-12-15T07:50:05.518Z,989.89
2017-12-15T07:51:05.273Z,989.88
2017-12-15T07:52:05.320Z,989.87
2017-12-15T07:53:05.344Z,989.86
2017-12-15T07:54:05.357Z,989.87
2017-12-15T07:55:05.389Z,989.85
2017-12-15T07:56:05.932Z,989.86
2017-12-15T07:57:06.395Z,989.85
2017-12-15T07:58:05.592Z,989.90
2017-12-15T07:59:05.538Z,989.87
2017-12-15T08:00:05.543Z,989.89
2017-12-15T08:01:05.622Z,989.93
2017-12-15T08:02:05.969Z,989.89
2017-12-15T08:03:05.839Z,989.87
2017-12-15T08:04:05.671Z,989.89
2017-12-15T08:05:05.701Z,989.93
2017-12-15T08:06:05.805Z,989.89
2017-12-15T08:07:05.993Z,989.91
2017-12-15T08:10:06.172Z,989.92
2017-12-15T08:11:05.910Z,989.92
2017-12-15T08:12:05.967Z,989.95
2017-12-15T08:13:05.946Z,989.95
2017-12-15T08:14:06.043Z,989.99
2017-12-15T08:15:06.055Z,989.99
2017-12-15T08:16:06.385Z,990.02
2017-12-15T08:17:06.404Z,990.05
2017-12-15T08:18:06.097Z,990.04
2017-12-15T08:19:06.416Z,990.05
2017-12-15T08:20:06.198Z,990.06
2017-12-15T08:21:06.242Z,990.07
2017-12-15T08:22:06.632Z,990.07
2017-12-15T08:23:06.454Z,990.08
2017-12-15T08:24:06.297Z,990.09
2017-12-15T08:25:06.402Z,990.12
2017-12-15T08:26:06.345Z,990.11
2017-12-15T08:27:06.372Z,990.15
2017-12-15T08:28:06.994Z,990.14
2017-12-15T08:29:06.538Z,990.19
2017-12-15T08:30:06.464Z,990.17
2017-12-15T08:31:06.500Z,990.19
2017-12-15T08:32:06.539Z,990.18
2017-12-15T08:33:06.897Z,990.20
2017-12-15T08:34:06.958Z,990.18
2017-12-15T08:35:06.670Z,990.22
2017-12-15T08:36:06.694Z,990.24
2017-12-15T08:37:06.692Z,990.27
2017-12-15T08:38:06.710Z,990.27
2017-12-15T08:39:06.779Z,990.28
2017-12-15T08:40:07.131Z,990.31
2017-12-15T08:41:07.126Z,990.29
2017-12-15T08:42:06.892Z,990.31
2017-12-15T08:43:06.967Z,990.26
2017-12-15T08:44:07.105Z,990.31
2017-12-15T08:45:07.008Z,990.34
2017-12-15T08:47:07.509Z,990.31
2017-12-15T08:48:07.204Z,990.30
2017-12-15T08:49:07.116Z,990.34
2017-12-15T08:50:07.248Z,990.37
2017-12-15T08:51:07.135Z,990.36
2017-12-15T08:52:07.236Z,990.40
2017-12-15T08:53:07.499Z,990.39
2017-12-15T08:54:07.311Z,990.43
2017-12-15T08:55:07.245Z,990.40
2017-12-15T08:56:07.319Z,990.42
2017-12-15T08:57:07.313Z,990.44
2017-12-15T08:58:07.318Z,990.44
2017-12-15T08:59:07.727Z,990.44
2017-12-15T09:00:07.469Z,990.45
2017-12-15T09:01:07.464Z,990.44
2017-12-15T09:02:07.478Z,990.51
2017-12-15T09:03:07.492Z,990.53
2017-12-15T09:04:07.930Z,990.50
2017-12-15T09:05:07.916Z,990.49
2017-12-15T09:06:07.786Z,990.51
2017-12-15T09:07:07.651Z,990.53
2017-12-15T09:08:07.752Z,990.55
2017-12-15T09:09:07.725Z,990.53
2017-12-15T09:10:08.183Z,990.51
2017-12-15T09:11:08.336Z,990.51
2017-12-15T09:12:08.004Z,990.50
2017-12-15T09:13:08.806Z,990.51
2017-12-15T09:14:07.890Z,990.52
2017-12-15T09:15:08.002Z,990.55
2017-12-15T09:16:07.911Z,990.59
2017-12-15T09:17:08.343Z,990.59
2017-12-15T09:18:08.122Z,990.59
2017-12-15T09:19:08.013Z,990.64
2017-12-15T09:20:08.048Z,990.61
2017-12-15T09:21:08.031Z,990.61
2017-12-15T09:22:08.072Z,990.64
2017-12-15T09:23:08.534Z,990.65
2017-12-15T09:24:08.176Z,990.64
2017-12-15T09:25:08.173Z,990.66
2017-12-15T09:26:08.216Z,990.68
2017-12-15T09:27:08.221Z,990.69
2017-12-15T09:28:08.296Z,990.68
2017-12-15T09:31:08.744Z,990.71
2017-12-15T09:32:08.435Z,990.74
2017-12-15T09:33:08.567Z,990.73
2017-12-15T09:34:08.440Z,990.72
2017-12-15T09:35:08.532Z,990.74
2017-12-15T09:36:08.498Z,990.73
2017-12-15T09:37:08.832Z,990.74
2017-12-15T09:38:08.564Z,990.73
2017-12-15T09:39:09.204Z,990.73
2017-12-15T09:40:08.648Z,990.73
2017-12-15T09:41:08.673Z,990.74
2017-12-15T09:42:08.686Z,990.79
2017-12-15T09:43:09.006Z,990.79
2017-12-15T09:44:08.741Z,990.82
2017-12-15T09:45:09.024Z,990.80
2017-12-15T09:46:08.854Z,990.83
2017-12-15T09:47:08.914Z,990.85
2017-12-15T09:48:08.860Z,990.83
2017-12-15T09:49:08.914Z,990.87
2017-12-15T09:50:09.283Z,990.90
2017-12-15T09:51:09.119Z,990.90
2017-12-15T09:52:09.033Z,990.92
2017-12-15T09:53:09.079Z,990.94
2017-12-15T09:54:09.064Z,990.92
2017-12-15T09:55:09.097Z,990.94
2017-12-15T09:56:10.272Z,990.94
2017-12-15T09:57:10.857Z,990.93
2017-12-15T09:58:09.228Z,990.92
2017-12-15T09:59:10.476Z,990.94
2017-12-15T10:00:09.345Z,990.98
2017-12-15T10:01:09.265Z,990.97
2017-12-15T10:02:09.678Z,990.92
2017-12-15T10:03:09.577Z,990.93
2017-12-15T10:04:09.402Z,990.95
2017-12-15T10:05:09.656Z,990.98
2017-12-15T10:06:09.428Z,991.00
2017-12-15T10:07:09.470Z,990.99
2017-12-15T10:08:09.516Z,990.98
2017-12-15T10:09:09.879Z,990.99
2017-12-15T10:10:09.572Z,990.97
2017-12-15T10:11:10.084Z,990.98
2017-12-15T10:12:09.633Z,991.00
2017-12-15T10:13:09.692Z,991.02
2017-12-15T10:14:09.671Z,991.03
2017-12-15T10:15:11.512Z,991.01
2017-12-15T10:16:09.816Z,991.03
2017-12-15T10:17:09.921Z,991.04
2017-12-15T10:18:09.823Z,991.02
2017-12-15T10:19:09.869Z,991.04
2017-12-15T10:20:09.911Z,991.03
2017-12-15T10:22:10.370Z,991.03
2017-12-15T10:23:10.024Z,991.04
2017-12-15T10:24:10.295Z,991.03
2017-12-15T10:25:10.042Z,991.02
2017-12-15T10:26:10.214Z,991.00
2017-12-15T10:27:10.131Z,991.03
2017-12-15T10:28:10.184Z,991.04
2017-12-15T10:29:10.550Z,991.04
2017-12-15T10:30:10.170Z,991.00
2017-12-15T10:31:10.298Z,991.05
2017-12-15T10:32:10.246Z,991.00
2017-12-15T10:33:10.312Z,990.99
2017-12-15T10:34:10.354Z,990.99
2017-12-15T10:35:10.330Z,990.95
2017-12-15T10:36:10.805Z,990.97
2017-12-15T10:37:10.627Z,990.96
2017-12-15T10:38:10.429Z,990.98
2017-12-15T10:39:10.558Z,990.91
2017-12-15T10:40:10.620Z,990.96
2017-12-15T10:41:10.611Z,990.95
2017-12-15T10:42:10.919Z,990.98
2017-12-15T10:43:10.778Z,990.99
2017-12-15T10:44:10.949Z,990.98
2017-12-15T10:45:10.641Z,991.03
2017-12-15T10:46:10.766Z,991.02
2017-12-15T10:47:11.080Z,991.02
2017-12-15T10:48:10.831Z,991.06
2017-12-15T10:49:11.065Z,991.10
2017-12-15T10:50:10.898Z,991.07
2017-12-15T10:51:10.921Z,991.07
2017-12-15T10:52:11.029Z,991.07
2017-12-15T10:53:11.000Z,991.09
2017-12-15T10:54:11.457Z,991.13
2017-12-15T10:55:11.068Z,991.08
2017-12-15T10:56:11.200Z,991.12
2017-12-15T10:57:11.106Z,991.15
2017-12-15T10:58:11.107Z,991.10
2017-12-15T10:59:11.139Z,991.14
2017-12-15T11:00:11.142Z,991.14
2017-12-15T11:01:11.158Z,991.11
2017-12-15T11:02:11.187Z,991.14
2017-12-15T11:03:11.211Z,991.15
2017-12-15T11:04:11.289Z,991.13
2017-12-15T11:05:11.402Z,991.15
2017-12-15T11:06:11.611Z,991.17
2017-12-15T11:07:11.395Z,991.16
2017-12-15T11:08:11.418Z,991.18
2017-12-15T11:09:11.489Z,991.17
2017-12-15T11:10:11.528Z,991.14
2017-12-15T11:11:11.548Z,991.16
2017-12-15T11:12:11.902Z,991.14
2017-12-15T11:13:11.573Z,991.13
2017-12-15T11:14:11.566Z,991.14
2017-12-15T11:15:11.589Z,991.09
2017-12-15T11:16:11.784Z,991.09
2017-12-15T11:17:11.723Z,991.14
2017-12-15T11:18:12.054Z,991.15
2017-12-15T11:19:11.760Z,991.17
2017-12-15T11:20:11.773Z,991.18
2017-12-15T11:21:11.782Z,991.19
2017-12-15T11:22:11.955Z,991.22
2017-12-15T11:23:11.896Z,991.17
2017-12-15T11:24:12.003Z,991.20
2017-12-15T11:25:12.036Z,991.18
2017-12-15T11:26:12.043Z,991.17
2017-12-15T11:27:12.001Z,991.20
2017-12-15T11:28:12.016Z,991.15
2017-12-15T11:29:12.082Z,991.18
2017-12-15T11:30:13.127Z,991.20
2017-12-15T11:31:12.100Z,991.22
2017-12-15T11:32:12.190Z,991.24
2017-12-15T11:33:12.191Z,991.26
2017-12-15T11:34:12.252Z,991.28
2017-12-15T11:35:12.235Z,991.28
2017-12-15T11:36:12.603Z,991.33
2017-12-15T11:37:12.513Z,991.31
2017-12-15T11:38:12.409Z,991.33
2017-12-15T11:39:12.343Z,991.29
2017-12-15T11:40:12.464Z,991.31
2017-12-15T11:41:12.504Z,991.32
2017-12-15T11:42:12.805Z,991.31
2017-12-15T11:43:12.683Z,991.31
2017-12-15T11:44:12.517Z,991.32
2017-12-15T11:46:12.702Z,991.34
2017-12-15T11:47:12.702Z,991.34
2017-12-15T11:48:12.648Z,991.32
2017-12-15T11:49:13.290Z,991.35
2017-12-15T11:50:12.694Z,991.33
2017-12-15T11:51:12.725Z,991.34
2017-12-15T11:52:12.786Z,991.38
2017-12-15T11:53:12.985Z,991.36
2017-12-15T11:54:13.681Z,991.39
2017-12-15T11:55:12.901Z,991.38
2017-12-15T11:56:12.931Z,991.36
2017-12-15T11:57:13.111Z,991.38
2017-12-15T11:58:13.099Z,991.35
2017-12-15T11:59:13.059Z,991.38
2017-12-15T12:00:13.011Z,991.36
2017-12-15T12:01:14.028Z,991.35
2017-12-15T12:02:14.847Z,991.33
2017-12-15T12:03:13.325Z,991.36
2017-12-15T12:04:13.165Z,991.33
2017-12-15T12:05:13.267Z,991.33
2017-12-15T12:06:13.263Z,991.34
2017-12-15T12:08:13.415Z,991.36
2017-12-15T12:09:13.354Z,991.35
2017-12-15T12:10:13.405Z,991.38
2017-12-15T12:11:13.352Z,991.38
2017-12-15T12:12:13.392Z,991.44
2017-12-15T12:13:13.466Z,991.43
2017-12-15T12:14:13.503Z,991.43
2017-12-15T12:15:13.784Z,991.45
2017-12-15T12:16:13.520Z,991.45
2017-12-15T12:17:13.693Z,991.47
2017-12-15T12:18:13.593Z,991.44
2017-12-15T12:19:13.901Z,991.44
2017-12-15T12:20:13.780Z,991.44
2017-12-15T12:21:13.717Z,991.48
2017-12-15T12:22:14.602Z,991.43
2017-12-15T12:23:13.781Z,991.45
2017-12-15T12:24:13.767Z,991.49
2017-12-15T12:25:13.951Z,991.49
2017-12-15T12:26:13.878Z,991.44
2017-12-15T12:27:14.016Z,991.49
2017-12-15T12:28:13.889Z,991.52
2017-12-15T12:29:14.291Z,991.52
2017-12-15T12:30:13.952Z,991.50
2017-12-15T12:31:14.157Z,991.51
2017-12-15T12:32:14.107Z,991.55
2017-12-15T12:33:14.129Z,991.58
2017-12-15T12:34:14.124Z,991.62
2017-12-15T12:35:14.123Z,991.58
2017-12-15T12:36:14.787Z,991.63
2017-12-15T12:37:14.248Z,991.64
2017-12-15T12:38:14.260Z,991.66
2017-12-15T12:39:14.289Z,991.64
2017-12-15T12:40:14.271Z,991.66
2017-12-15T12:41:14.531Z,991.66
2017-12-15T12:42:14.352Z,991.65
2017-12-15T12:43:14.666Z,991.68
2017-12-15T12:44:14.410Z,991.64
2017-12-15T12:45:14.487Z,991.66
2017-12-15T12:46:14.481Z,991.66
2017-12-15T12:47:14.538Z,991.70
2017-12-15T12:48:14.517Z,991.69
2017-12-15T12:49:14.561Z,991.74
2017-12-15T12:50:15.264Z,991.70
2017-12-15T12:51:14.626Z,991.75
2017-12-15T12:52:14.647Z,991.73
2017-12-15T12:53:15.350Z,991.77
2017-12-15T12:54:14.757Z,991.78
2017-12-15T12:55:14.735Z,991.77